Time;durP1;ratioP1;P1;durP2;ratioP2;P2;SDS_P1;SDS_P2;PMS_P1;PMS_P2;Temp;Humidity;BMP_temperature;BMP_pressure;BME280_temperature;BME280_humidity;BME280_pressure;Samples;Min_cycle;Max_cycle;Signal;HPM_P1;HPM_P2
2022/11/13 00:00:33;;;;;;;;;62.25;49.75;;;;;10.60;100.00;102036.97;5061558;28;45332;-78
2022/11/13 00:02:58;;;;;;;;;56.00;43.75;;;;;10.65;100.00;102025.91;5060521;28;46992;-78
2022/11/13 00:05:24;;;;;;;;;66.25;53.75;;;;;10.72;100.00;102027.00;5060332;28;45360;-78
2022/11/13 00:07:49;;;;;;;;;75.50;62.75;;;;;10.71;100.00;102024.47;5061564;28;45838;-78
2022/11/13 00:10:15;;;;;;;;;69.75;55.75;;;;;10.71;100.00;102028.00;5061638;28;45577;-78
2022/11/13 00:12:40;;;;;;;;;72.00;56.50;;;;;10.63;100.00;102003.94;5061319;28;45397;-78
2022/11/13 00:15:06;;;;;;;;;73.00;57.25;;;;;10.69;100.00;102006.00;5061811;28;45287;-78
2022/11/13 00:17:31;;;;;;;;;66.25;53.75;;;;;10.64;100.00;102008.28;5061713;28;45434;-78
2022/11/13 00:19:56;;;;;;;;;65.00;53.25;;;;;10.64;100.00;102007.44;5061437;28;45506;-79
2022/11/13 00:22:22;;;;;;;;;64.75;52.50;;;;;10.58;100.00;102004.38;5043189;28;47248;-79
2022/11/13 00:24:47;;;;;;;;;58.50;49.00;;;;;10.60;100.00;102002.41;5061365;28;45281;-79
2022/11/13 00:27:12;;;;;;;;;61.50;48.00;;;;;10.61;100.00;102005.91;5061290;28;45409;-79
2022/11/13 00:29:37;;;;;;;;;53.75;44.00;;;;;10.57;100.00;101999.19;5061028;28;51589;-79
2022/11/13 00:32:03;;;;;;;;;51.75;43.50;;;;;10.62;100.00;101993.47;5061139;28;51188;-78
2022/11/13 00:34:28;;;;;;;;;52.00;43.00;;;;;10.41;100.00;101958.06;5060896;28;45328;-78
2022/11/13 00:36:54;;;;;;;;;55.00;46.50;;;;;10.62;100.00;101996.94;5061746;28;45397;-78
2022/11/13 00:39:19;;;;;;;;;56.00;46.25;;;;;10.57;100.00;101992.03;5061071;28;45377;-78
2022/11/13 00:41:44;;;;;;;;;71.00;57.50;;;;;10.55;100.00;101987.88;5061026;28;45385;-79
2022/11/13 00:44:10;;;;;;;;;67.50;54.75;;;;;10.58;100.00;101983.09;5061264;28;45713;-78
2022/11/13 00:46:35;;;;;;;;;65.75;54.00;;;;;10.46;100.00;101966.50;5061250;28;45718;-78
2022/11/13 00:49:00;;;;;;;;;70.75;57.50;;;;;10.54;100.00;101978.22;5059702;28;46867;-78
2022/11/13 00:51:26;;;;;;;;;70.00;55.25;;;;;10.56;100.00;101981.56;5059684;28;46888;-78
2022/11/13 00:53:51;;;;;;;;;70.25;58.75;;;;;10.57;100.00;101975.28;5059790;28;45268;-78
2022/11/13 00:56:16;;;;;;;;;70.25;55.25;;;;;10.54;100.00;101965.75;5061341;28;45261;-78
2022/11/13 00:58:42;;;;;;;;;69.50;55.00;;;;;10.45;100.00;101948.84;5060786;28;45228;-78
2022/11/13 01:01:11;;;;;;;;;67.75;53.50;;;;;10.48;100.00;101961.84;5060687;28;52899;-78
2022/11/13 01:03:37;;;;;;;;;69.00;55.00;;;;;10.44;100.00;101956.94;5060483;28;45410;-78
2022/11/13 01:06:29;;;;;;;;;64.00;52.75;;;;;10.43;100.00;101964.09;5060779;28;45886;-78
2022/11/13 01:08:56;;;;;;;;;65.50;51.50;;;;;10.39;100.00;101945.91;5056285;28;46120;-78
2022/11/13 01:11:24;;;;;;;;;60.25;49.00;;;;;10.38;100.00;101945.06;5060338;28;45353;-78
2022/11/13 01:13:51;;;;;;;;;60.00;49.25;;;;;10.29;100.00;101927.31;5060754;28;45437;-78
2022/11/13 01:16:19;;;;;;;;;57.25;47.75;;;;;10.35;100.00;101940.03;5060733;28;45295;-78
2022/11/13 01:18:45;;;;;;;;;57.25;46.75;;;;;10.33;100.00;101939.34;5059139;28;46454;-78
2022/11/13 01:21:14;;;;;;;;;59.00;48.50;;;;;10.31;100.00;101946.63;5059151;28;48531;-78
2022/11/13 01:23:39;;;;;;;;;58.25;48.25;;;;;10.24;100.00;101938.38;5059147;28;46000;-78
2022/11/13 01:26:11;;;;;;;;;58.50;49.00;;;;;10.22;100.00;101940.34;5060260;28;45524;-78
2022/11/13 01:28:38;;;;;;;;;58.25;47.00;;;;;10.21;100.00;101933.34;5060616;28;45292;-78
2022/11/13 01:31:05;;;;;;;;;57.25;46.75;;;;;10.26;100.00;101948.88;5060193;28;45464;-78
2022/11/13 01:33:31;;;;;;;;;53.75;45.25;;;;;10.09;100.00;101930.03;5059014;28;45478;-78
2022/11/13 01:36:06;;;;;;;;;55.00;45.00;;;;;10.08;100.00;101929.16;5060558;28;45475;-78
2022/11/13 01:38:32;;;;;;;;;53.25;45.50;;;;;10.12;100.00;101939.50;5060242;28;45698;-79
2022/11/13 01:40:57;;;;;;;;;58.25;48.00;;;;;10.08;100.00;101946.91;5060344;28;45219;-78
2022/11/13 01:43:24;;;;;;;;;56.50;47.00;;;;;10.05;100.00;101944.53;5059975;28;45268;-78
2022/11/13 01:46:06;;;;;;;;;56.50;46.75;;;;;10.02;100.00;101931.53;5059129;28;45313;-78
2022/11/13 01:48:37;;;;;;;;;53.75;45.25;;;;;9.93;100.00;101920.78;5059704;28;45663;-79
2022/11/13 01:51:12;;;;;;;;;54.25;45.50;;;;;10.01;100.00;101938.69;5058613;28;47578;-78
2022/11/13 01:53:41;;;;;;;;;54.25;45.00;;;;;10.00;100.00;101930.84;5059809;28;45494;-78
2022/11/13 01:56:07;;;;;;;;;55.25;46.50;;;;;9.95;100.00;101929.47;5060276;28;46686;-79
2022/11/13 01:58:33;;;;;;;;;56.50;46.00;;;;;9.90;100.00;101934.34;5059778;28;45318;-79
2022/11/13 02:00:58;;;;;;;;;54.25;46.00;;;;;9.87;100.00;101928.50;5059960;28;45258;-78
2022/11/13 02:03:24;;;;;;;;;52.25;43.75;;;;;9.78;100.00;101922.19;5059806;28;45307;-78
2022/11/13 02:05:50;;;;;;;;;50.50;42.75;;;;;9.83;100.00;101934.09;5060023;28;45244;-79
2022/11/13 02:08:16;;;;;;;;;53.50;44.00;;;;;9.77;100.00;101933.78;5059729;28;45334;-78
2022/11/13 02:10:42;;;;;;;;;49.75;43.00;;;;;9.71;100.00;101927.22;5059450;28;46187;-78
2022/11/13 02:13:09;;;;;;;;;50.50;42.00;;;;;9.75;100.00;101941.91;5059806;28;45477;-78
2022/11/13 02:15:34;;;;;;;;;50.00;41.75;;;;;9.57;100.00;101925.81;5059191;28;45252;-78
2022/11/13 02:18:01;;;;;;;;;51.00;43.50;;;;;9.66;100.00;101916.19;5059402;28;45321;-78
2022/11/13 02:20:38;;;;;;;;;49.50;41.25;;;;;9.62;100.00;101910.31;5059683;28;45670;-79
2022/11/13 02:23:42;;;;;;;;;51.00;42.50;;;;;9.67;100.00;101916.03;5059339;28;45306;-78
2022/11/13 02:26:09;;;;;;;;;50.50;42.75;;;;;9.62;100.00;101902.38;5058902;28;45338;-78
2022/11/13 02:28:35;;;;;;;;;50.50;43.00;;;;;9.64;100.00;101908.34;5058253;28;46101;-78
2022/11/13 02:31:12;;;;;;;;;43.50;38.00;;;;;9.70;100.00;101910.44;5059418;28;46112;-78
2022/11/13 02:33:38;;;;;;;;;50.25;41.75;;;;;9.67;100.00;101899.28;5046622;28;45391;-79
2022/11/13 02:36:05;;;;;;;;;49.00;41.00;;;;;9.77;100.00;101921.38;5059576;28;45458;-78
2022/11/13 02:38:33;;;;;;;;;49.50;41.75;;;;;9.77;100.00;101923.16;5057874;28;47308;-79
2022/11/13 02:40:59;;;;;;;;;40.00;34.75;;;;;9.73;100.00;101904.88;5059087;28;46400;-78
2022/11/13 02:43:24;;;;;;;;;43.25;35.25;;;;;9.44;100.00;101857.94;5059181;28;45260;-78
2022/11/13 02:45:49;;;;;;;;;39.00;32.50;;;;;9.78;100.00;101907.09;5058268;28;45645;-79
2022/11/13 02:48:15;;;;;;;;;36.50;33.00;;;;;9.84;100.00;101911.84;5058985;28;45283;-79
2022/11/13 02:50:40;;;;;;;;;33.00;32.00;;;;;9.84;100.00;101919.81;5057923;28;48444;-79
2022/11/13 02:53:06;;;;;;;;;32.67;32.00;;;;;9.84;100.00;101903.91;5059205;28;45277;-78
2022/11/13 02:55:31;;;;;;;;;33.33;32.00;;;;;9.85;100.00;101900.25;5059424;28;45256;-78
2022/11/13 02:57:56;;;;;;;;;33.00;32.00;;;;;9.85;100.00;101892.28;5059128;28;45347;-78
2022/11/13 03:00:22;;;;;;;;;34.67;31.67;;;;;9.92;100.00;101897.03;5061234;28;46126;-78
2022/11/13 03:02:48;;;;;;;;;33.67;32.00;;;;;9.93;100.00;101896.03;5059558;27;45410;-79
2022/11/13 03:05:13;;;;;;;;;29.00;28.00;;;;;9.92;100.00;101883.75;5058955;28;45619;-78
2022/11/13 03:07:39;;;;;;;;;29.00;28.00;;;;;9.88;100.00;101866.44;5057484;28;47246;-79
2022/11/13 03:10:05;;;;;;;;;30.00;27.67;;;;;9.94;100.00;101884.47;5059003;28;45458;-78
2022/11/13 03:12:31;;;;;;;;;32.33;29.67;;;;;9.92;100.00;101881.94;5058702;28;45469;-78
2022/11/13 03:14:57;;;;;;;;;31.33;29.00;;;;;9.92;100.00;101854.53;5059268;28;45347;-79
2022/11/13 03:17:22;;;;;;;;;32.33;29.33;;;;;9.96;100.00;101864.75;5058731;28;45490;-79
2022/11/13 03:19:47;;;;;;;;;31.33;29.33;;;;;9.91;100.00;101853.69;5057368;28;47222;-79
2022/11/13 03:22:13;;;;;;;;;34.67;32.00;;;;;9.81;100.00;101848.41;5058833;28;45270;-78
2022/11/13 03:24:38;;;;;;;;;30.67;28.00;;;;;9.78;100.00;101845.19;5057443;28;45629;-79
2022/11/13 03:27:03;;;;;;;;;29.00;28.67;;;;;9.87;100.00;101859.47;5058741;28;46475;-78
2022/11/13 03:29:29;;;;;;;;;30.67;28.33;;;;;10.08;100.00;101869.88;5062212;28;46365;-79
2022/11/13 03:31:54;;;;;;;;;25.67;25.33;;;;;10.04;100.00;101845.44;5062346;28;45372;-79
2022/11/13 03:34:19;;;;;;;;;28.33;27.67;;;;;9.83;100.00;101841.16;5062266;28;45291;-79
2022/11/13 03:36:45;;;;;;;;;31.33;30.67;;;;;9.88;100.00;101858.47;5062082;28;45224;-78
2022/11/13 03:39:10;;;;;;;;;26.67;26.67;;;;;9.82;100.00;101839.47;5062094;28;46398;-79
2022/11/13 03:41:35;;;;;;;;;26.67;25.33;;;;;9.76;100.00;101831.25;5062136;28;45279;-79
2022/11/13 03:44:01;;;;;;;;;34.00;29.33;;;;;9.85;100.00;101839.19;5062196;28;45826;-79
2022/11/13 03:46:26;;;;;;;;;24.67;24.67;;;;;9.91;100.00;101836.94;5062059;28;45378;-79
2022/11/13 03:48:51;;;;;;;;;28.67;27.00;;;;;9.94;100.00;101839.31;5061867;28;45503;-79
2022/11/13 03:51:17;;;;;;;;;25.33;25.00;;;;;9.83;100.00;101814.59;5060620;28;45468;-79
2022/11/13 03:53:42;;;;;;;;;28.67;27.67;;;;;9.95;100.00;101823.25;5062087;28;45762;-79
2022/11/13 03:56:07;;;;;;;;;30.67;28.67;;;;;10.04;100.00;101832.16;5060728;28;46934;-79
2022/11/13 03:58:33;;;;;;;;;28.67;26.67;;;;;9.94;100.00;101834.00;5060446;28;47057;-79
2022/11/13 04:00:58;;;;;;;;;16.00;15.67;;;;;9.93;100.00;101841.13;5061858;28;45481;-79
2022/11/13 04:03:23;;;;;;;;;31.33;31.00;;;;;9.97;100.00;101839.03;5061925;28;45330;-79
2022/11/13 04:05:49;;;;;;;;;32.67;32.33;;;;;9.98;100.00;101840.69;5061709;28;45521;-79
2022/11/13 04:08:16;;;;;;;;;33.00;30.00;;;;;10.00;100.00;101833.44;5061785;28;45324;-79
2022/11/13 04:10:41;;;;;;;;;31.67;30.33;;;;;9.92;100.00;101833.28;5060304;28;46466;-79
2022/11/13 04:13:07;;;;;;;;;36.33;31.00;;;;;9.94;100.00;101839.31;5061550;28;45419;-79
2022/11/13 04:15:32;;;;;;;;;29.00;29.00;;;;;9.90;100.00;101838.75;5061743;28;45232;-78
2022/11/13 04:17:58;;;;;;;;;34.00;31.67;;;;;9.93;100.00;101840.28;5061330;28;45251;-79
2022/11/13 04:20:24;;;;;;;;;39.33;33.33;;;;;9.97;100.00;101850.47;5061607;28;45356;-79
2022/11/13 04:22:49;;;;;;;;;31.67;30.67;;;;;9.86;100.00;101834.72;5060204;28;45306;-79
2022/11/13 04:25:15;;;;;;;;;21.00;21.00;;;;;9.90;100.00;101830.78;5061341;28;45204;-79
2022/11/13 04:27:40;;;;;;;;;30.67;28.33;;;;;10.06;100.00;101840.81;5061494;28;45555;-79
2022/11/13 04:30:06;;;;;;;;;22.33;21.00;;;;;10.02;100.00;101827.94;5060189;28;45304;-79
2022/11/13 04:32:31;;;;;;;;;31.33;29.33;;;;;9.97;100.00;101823.91;5061551;28;45388;-79
2022/11/13 04:34:57;;;;;;;;;28.67;28.67;;;;;9.82;100.00;101814.75;5060858;28;45606;-78
2022/11/13 04:37:22;;;;;;;;;33.67;32.00;;;;;10.08;100.00;101832.69;5060652;28;45419;-78
2022/11/13 04:39:48;;;;;;;;;34.67;32.67;;;;;10.07;100.00;101831.88;5059868;28;45729;-79
2022/11/13 04:44:57;;;;;;;;;32.00;30.00;;;;;10.04;100.00;101821.53;5061148;28;45328;-78
2022/11/13 04:47:22;;;;;;;;;27.00;26.33;;;;;9.95;100.00;101811.78;5060920;28;49650;-79
2022/11/13 04:49:47;;;;;;;;;31.33;28.00;;;;;10.03;100.00;101816.38;5059556;28;46047;-79
2022/11/13 04:52:13;;;;;;;;;16.67;13.33;;;;;10.08;100.00;101822.91;5059682;28;45441;-79
2022/11/13 04:54:38;;;;;;;;;29.00;28.00;;;;;9.95;100.00;101806.47;5059795;28;46408;-79
2022/11/13 04:57:04;;;;;;;;;31.00;26.33;;;;;9.97;100.00;101826.56;5059561;28;48206;-78
2022/11/13 04:59:29;;;;;;;;;30.33;29.33;;;;;9.99;100.00;101829.09;5061129;28;45381;-79
2022/11/13 05:01:54;;;;;;;;;31.33;29.67;;;;;9.84;100.00;101821.56;5060977;28;45321;-79
2022/11/13 05:04:21;;;;;;;;;32.67;31.00;;;;;10.01;100.00;101820.97;5060562;28;46032;-79
2022/11/13 05:06:46;;;;;;;;;28.33;28.00;;;;;9.96;100.00;101832.88;5061062;28;45536;-79
2022/11/13 05:09:11;;;;;;;;;32.00;29.67;;;;;9.80;100.00;101814.03;5060439;28;45726;-78
2022/11/13 05:11:37;;;;;;;;;34.33;32.00;;;;;9.89;100.00;101820.31;5061070;28;45221;-79
2022/11/13 05:14:03;;;;;;;;;30.67;30.33;;;;;10.04;100.00;101844.59;5059553;28;45902;-79
2022/11/13 05:16:29;;;;;;;;;30.00;26.00;;;;;10.06;100.00;101834.69;5059573;28;48113;-79
2022/11/13 05:18:57;;;;;;;;;28.67;27.33;;;;;9.95;100.00;101811.78;5059164;28;45580;-79
2022/11/13 05:21:22;;;;;;;;;31.33;30.00;;;;;10.11;100.00;101829.75;5060621;28;45429;-79
2022/11/13 05:23:47;;;;;;;;;31.00;29.00;;;;;9.87;100.00;101809.81;5060628;28;45324;-79
2022/11/13 05:26:14;;;;;;;;;31.00;30.00;;;;;9.94;100.00;101818.06;5060073;28;47349;-78
2022/11/13 05:28:39;;;;;;;;;32.33;30.33;;;;;10.00;100.00;101824.63;5060722;28;45397;-79
2022/11/13 05:31:11;;;;;;;;;33.67;31.00;;;;;9.92;100.00;101809.41;5060457;28;45459;-79
2022/11/13 05:33:38;;;;;;;;;28.67;27.33;;;;;9.98;100.00;101814.13;5060386;28;45699;-78
2022/11/13 05:36:15;;;;;;;;;32.67;31.33;;;;;9.95;100.00;101817.94;5060213;28;45421;-79
2022/11/13 05:38:41;;;;;;;;;30.67;30.67;;;;;9.91;100.00;101811.22;5060518;28;45561;-78
2022/11/13 05:41:10;;;;;;;;;32.00;31.33;;;;;10.06;100.00;101810.78;5060442;28;45411;-79
2022/11/13 05:43:37;;;;;;;;;31.33;30.67;;;;;10.07;100.00;101797.34;5060138;28;45405;-79
2022/11/13 05:46:24;;;;;;;;;33.00;32.00;;;;;9.99;100.00;101799.88;5058893;28;47198;-79
2022/11/13 05:48:54;;;;;;;;;32.33;31.00;;;;;10.11;100.00;101795.22;5059311;28;45374;-79
2022/11/13 05:51:22;;;;;;;;;32.67;31.67;;;;;10.14;100.00;101788.81;5058663;28;45376;-78
2022/11/13 05:53:48;;;;;;;;;30.67;29.00;;;;;10.06;100.00;101776.25;5058594;28;47190;-79
2022/11/13 05:56:19;;;;;;;;;32.00;31.33;;;;;10.02;100.00;101770.38;5060103;28;46249;-79
2022/11/13 05:58:46;;;;;;;;;37.75;33.00;;;;;10.00;100.00;101772.34;5060067;28;45310;-79
2022/11/13 06:01:15;;;;;;;;;31.33;30.33;;;;;10.06;100.00;101774.41;5060171;28;45520;-79
2022/11/13 06:03:41;;;;;;;;;32.00;30.67;;;;;10.09;100.00;101773.28;5058472;28;47299;-79
2022/11/13 06:06:11;;;;;;;;;31.67;31.00;;;;;10.06;100.00;101769.09;5059612;28;46667;-79
2022/11/13 06:08:37;;;;;;;;;36.00;31.33;;;;;10.01;100.00;101767.84;5059735;28;45237;-79
2022/11/13 06:11:05;;;;;;;;;32.33;32.00;;;;;10.01;100.00;101762.53;5058365;28;45384;-79
2022/11/13 06:13:30;;;;;;;;;31.33;29.67;;;;;9.98;100.00;101779.63;5059848;28;45785;-78
2022/11/13 06:16:05;;;;;;;;;28.00;25.00;;;;;9.93;100.00;101771.22;5059481;28;45467;-78
2022/11/13 06:18:31;;;;;;;;;32.33;29.67;;;;;9.83;100.00;101761.50;5059708;28;45315;-79
2022/11/13 06:21:05;;;;;;;;;33.50;32.25;;;;;9.80;100.00;101771.56;5058356;28;45258;-79
2022/11/13 06:23:32;;;;;;;;;28.33;26.67;;;;;9.74;100.00;101775.63;5058154;28;47324;-79
2022/11/13 06:26:15;;;;;;;;;32.00;29.67;;;;;9.73;100.00;101766.81;5059419;28;46770;-79
2022/11/13 06:28:41;;;;;;;;;29.67;29.67;;;;;9.67;100.00;101761.25;5063264;28;45934;-79
2022/11/13 06:31:08;;;;;;;;;31.00;27.00;;;;;9.64;100.00;101757.03;5057983;28;45249;-79
2022/11/13 06:33:34;;;;;;;;;30.67;30.33;;;;;9.63;100.00;101776.63;5059492;28;45497;-78
2022/11/13 06:36:01;;;;;;;;;27.00;26.00;;;;;9.59;100.00;101754.84;5058103;28;47877;-79
2022/11/13 06:38:32;;;;;;;;;27.67;27.33;;;;;9.62;100.00;101759.03;5057853;28;45493;-79
2022/11/13 06:40:58;;;;;;;;;28.33;28.33;;;;;9.65;100.00;101771.16;5059758;28;45161;-78
2022/11/13 06:43:23;;;;;;;;;32.33;27.67;;;;;9.49;100.00;101743.41;5059020;28;45165;-79
2022/11/13 06:45:49;;;;;;;;;27.67;27.67;;;;;9.49;100.00;101754.03;5059473;28;45298;-78
2022/11/13 06:48:14;;;;;;;;;27.67;27.33;;;;;9.51;100.00;101753.84;5059136;28;45211;-78
2022/11/13 06:50:39;;;;;;;;;27.00;24.67;;;;;9.47;100.00;101750.66;5059671;28;45356;-79
2022/11/13 06:53:04;;;;;;;;;27.67;25.67;;;;;9.53;100.00;101750.09;5058987;28;45487;-79
2022/11/13 06:55:30;;;;;;;;;30.33;28.00;;;;;9.58;100.00;101758.47;5057636;28;49140;-79
2022/11/13 06:57:55;;;;;;;;;30.33;28.00;;;;;9.44;100.00;101737.69;5059242;28;45288;-78
2022/11/13 07:00:20;;;;;;;;;24.33;22.67;;;;;9.20;100.00;101712.44;5057270;28;46322;-79
2022/11/13 07:02:49;;;;;;;;;27.00;24.67;;;;;9.33;100.00;101733.34;5058970;28;45175;-79
2022/11/13 07:05:15;;;;;;;;;27.00;25.33;;;;;9.29;100.00;101751.41;5057568;28;48507;-79
2022/11/13 07:07:40;;;;;;;;;30.00;27.33;;;;;9.29;100.00;101734.63;5057590;28;45394;-79
2022/11/13 07:10:06;;;;;;;;;30.33;28.33;;;;;9.24;100.00;101742.16;5058978;28;45291;-79
2022/11/13 07:12:32;;;;;;;;;29.67;27.67;;;;;9.28;100.00;101748.88;5058780;28;45378;-79
2022/11/13 07:14:57;;;;;;;;;30.00;27.67;;;;;9.24;100.00;101731.53;5057557;28;47231;-79
2022/11/13 07:17:22;;;;;;;;;29.67;29.33;;;;;9.28;100.00;101747.03;5057964;28;45495;-79
2022/11/13 07:19:48;;;;;;;;;28.67;28.00;;;;;9.34;100.00;101745.66;5049988;28;45396;-79
2022/11/13 07:22:13;;;;;;;;;31.33;27.33;;;;;9.19;100.00;101722.19;5055637;28;49041;-79
2022/11/13 07:24:38;;;;;;;;;27.00;26.00;;;;;9.24;100.00;101739.50;5048020;28;46989;-79
2022/11/13 07:27:04;;;;;;;;;32.33;31.33;;;;;9.39;100.00;101729.28;5057629;28;46010;-79
2022/11/13 07:29:29;;;;;;;;;31.00;31.00;;;;;9.42;100.00;101729.00;5057719;28;45235;-78
2022/11/13 07:31:54;;;;;;;;;35.75;31.75;;;;;9.44;100.00;101729.72;5058988;28;45239;-79
2022/11/13 07:34:19;;;;;;;;;32.67;28.33;;;;;9.44;100.00;101732.38;5058461;28;45271;-78
2022/11/13 07:36:45;;;;;;;;;39.75;33.25;;;;;9.44;100.00;101727.06;5058591;28;45212;-78
2022/11/13 07:39:10;;;;;;;;;29.33;28.00;;;;;9.38;100.00;101709.91;5057334;28;45420;-78
2022/11/13 07:41:35;;;;;;;;;35.25;33.50;;;;;9.40;100.00;101712.41;5056897;28;53232;-78
2022/11/13 07:44:01;;;;;;;;;34.00;32.00;;;;;9.40;100.00;101713.25;5058579;28;45323;-78
2022/11/13 07:46:26;;;;;;;;;37.00;34.00;;;;;9.43;100.00;101717.44;5057117;28;46183;-78
2022/11/13 07:48:51;;;;;;;;;41.50;35.25;;;;;9.50;100.00;101712.38;5057159;28;45522;-77
2022/11/13 07:51:17;;;;;;;;;39.25;35.50;;;;;9.47;100.00;101703.75;5056796;28;54039;-78
2022/11/13 07:53:42;;;;;;;;;38.50;34.75;;;;;9.51;100.00;101708.75;5058249;28;45418;-78
2022/11/13 07:56:07;;;;;;;;;37.50;32.75;;;;;9.57;100.00;101724.94;5058616;28;45419;-78
2022/11/13 07:58:32;;;;;;;;;35.00;32.75;;;;;9.55;100.00;101720.78;5058006;28;45443;-79
2022/11/13 08:01:02;;;;;;;;;32.50;31.25;;;;;9.52;100.00;101742.28;5057747;28;48634;-79
2022/11/13 08:03:28;;;;;;;;;30.33;29.67;;;;;9.63;100.00;101731.50;5058057;28;46253;-79
2022/11/13 08:05:59;;;;;;;;;32.67;31.00;;;;;9.67;100.00;101729.41;5058330;28;45265;-79
2022/11/13 08:08:24;;;;;;;;;32.00;32.00;;;;;9.62;100.00;101718.38;5058605;28;45294;-79
2022/11/13 08:10:49;;;;;;;;;32.00;30.67;;;;;9.67;100.00;101730.22;5057670;28;45344;-79
2022/11/13 08:13:15;;;;;;;;;33.67;30.67;;;;;9.55;100.00;101744.66;5059601;28;49176;-78
2022/11/13 08:15:40;;;;;;;;;29.33;29.33;;;;;9.59;100.00;101727.47;5061793;28;45615;-78
2022/11/13 08:18:06;;;;;;;;;30.75;29.50;;;;;9.65;100.00;101720.72;5061678;28;45596;-78
2022/11/13 08:20:31;;;;;;;;;32.33;30.33;;;;;9.72;100.00;101732.44;5061670;28;45510;-79
2022/11/13 08:23:02;;;;;;;;;39.50;32.25;;;;;9.60;100.00;101721.16;5060002;28;48374;-79
2022/11/13 08:25:28;;;;;;;;;31.00;29.00;;;;;9.74;100.00;101730.50;5060087;28;45309;-78
2022/11/13 08:27:54;;;;;;;;;30.00;30.00;;;;;9.72;100.00;101722.69;5061449;28;45397;-78
2022/11/13 08:30:20;;;;;;;;;34.50;32.50;;;;;9.75;100.00;101720.72;5056818;28;45511;-78
2022/11/13 08:32:49;;;;;;;;;32.75;32.00;;;;;9.75;100.00;101720.72;5058421;28;45470;-78
2022/11/13 08:35:15;;;;;;;;;36.75;34.75;;;;;9.78;100.00;101729.22;5059895;28;45663;-79
2022/11/13 08:37:40;;;;;;;;;38.00;31.67;;;;;9.72;100.00;101720.03;5060136;28;45363;-79
2022/11/13 08:40:06;;;;;;;;;37.75;34.25;;;;;9.65;100.00;101710.97;5059913;28;46105;-78
2022/11/13 08:42:31;;;;;;;;;37.25;31.75;;;;;9.64;100.00;101716.41;5059669;28;47343;-79
2022/11/13 08:44:57;;;;;;;;;35.25;31.50;;;;;9.62;100.00;101708.59;5061316;28;45437;-79
2022/11/13 08:47:22;;;;;;;;;39.75;34.50;;;;;9.56;100.00;101701.19;5062663;28;45312;-76
2022/11/13 08:49:48;;;;;;;;;37.25;34.50;;;;;9.59;100.00;101699.09;5064129;28;45648;-77
2022/11/13 08:52:14;;;;;;;;;36.00;34.00;;;;;9.64;100.00;101703.13;5073216;28;47221;-77
2022/11/13 08:54:40;;;;;;;;;36.00;34.00;;;;;9.65;100.00;101700.34;5062400;28;45428;-75
2022/11/13 08:57:05;;;;;;;;;35.50;32.00;;;;;9.71;100.00;101701.56;5072134;28;44700;-75
2022/11/13 08:59:31;;;;;;;;;41.25;35.00;;;;;9.70;100.00;101684.81;5077713;28;44971;-76
2022/11/13 09:01:59;;;;;;;;;41.00;35.25;;;;;9.75;100.00;101689.69;5079730;28;45481;-76
2022/11/13 09:04:25;;;;;;;;;36.75;33.50;;;;;9.80;100.00;101675.97;5065880;28;45218;-77
2022/11/13 09:06:51;;;;;;;;;36.67;33.00;;;;;9.88;100.00;101684.06;5056458;28;45362;-77
2022/11/13 09:09:17;;;;;;;;;37.25;33.50;;;;;9.90;100.00;101674.09;5060101;28;45434;-75
2022/11/13 09:11:43;;;;;;;;;31.67;31.00;;;;;9.85;100.00;101684.34;5060466;28;46306;-76
2022/11/13 09:14:09;;;;;;;;;36.50;33.00;;;;;9.86;100.00;101680.72;5060624;28;45380;-76
2022/11/13 09:16:34;;;;;;;;;38.75;35.75;;;;;9.91;100.00;101678.44;5059567;28;45387;-75
2022/11/13 09:19:00;;;;;;;;;40.75;34.50;;;;;9.94;100.00;101664.03;5061181;28;45517;-78
2022/11/13 09:21:25;;;;;;;;;40.25;35.00;;;;;9.98;100.00;101657.44;5059881;28;48068;-78
2022/11/13 09:23:50;;;;;;;;;37.00;34.33;;;;;9.96;100.00;101640.81;5058156;28;55158;-78
2022/11/13 09:26:16;;;;;;;;;37.00;34.00;;;;;10.16;100.00;101657.50;5043936;28;49709;-79
2022/11/13 09:28:42;;;;;;;;;35.25;33.00;;;;;10.20;100.00;101653.53;5050961;28;45484;-76
2022/11/13 09:31:07;;;;;;;;;34.00;32.00;;;;;10.23;100.00;101647.09;5061856;28;45283;-78
2022/11/13 09:33:33;;;;;;;;;33.00;32.00;;;;;10.32;100.00;101653.31;5058676;28;45313;-77
2022/11/13 09:35:59;;;;;;;;;41.00;35.00;;;;;10.38;100.00;101652.72;5057337;28;45592;-78
2022/11/13 09:38:25;;;;;;;;;35.67;33.67;;;;;10.39;100.00;101640.28;5058536;28;47650;-78
2022/11/13 09:40:59;;;;;;;;;39.50;35.50;;;;;10.53;100.00;101654.91;5081409;28;46362;-76
2022/11/13 09:43:38;;;;;;;;;35.67;29.67;;;;;10.51;100.00;101641.78;5068375;28;45504;-77
2022/11/13 09:46:14;;;;;;;;;38.67;34.33;;;;;10.58;100.00;101649.97;5064618;28;45332;-76
2022/11/13 09:48:45;;;;;;;;;35.00;31.33;;;;;10.66;100.00;101654.53;5066656;28;47545;-76
2022/11/13 09:51:25;;;;;;;;;34.00;32.33;;;;;10.69;100.00;101644.41;5069507;28;45316;-78
2022/11/13 09:53:51;;;;;;;;;36.00;33.33;;;;;10.73;100.00;101644.94;5062874;28;45476;-77
2022/11/13 09:56:42;;;;;;;;;39.33;33.67;;;;;10.80;100.00;101642.50;5053655;28;45862;-78
2022/11/13 09:59:32;;;;;;;;;36.33;33.00;;;;;10.86;100.00;101644.53;5062613;28;46258;-76
2022/11/13 10:02:06;;;;;;;;;33.67;32.33;;;;;10.93;100.00;101647.44;5065065;28;45604;-78
2022/11/13 10:04:36;;;;;;;;;30.33;28.67;;;;;11.01;100.00;101659.97;5058635;28;45356;-78
2022/11/13 10:07:20;;;;;;;;;37.50;33.00;;;;;11.06;100.00;101652.34;5060366;28;45434;-76
2022/11/13 10:10:20;;;;;;;;;35.33;32.00;;;;;11.11;100.00;101637.59;5053981;28;45678;-77
2022/11/13 10:12:48;;;;;;;;;29.00;27.33;;;;;11.10;100.00;101638.59;5044356;28;46347;-78
2022/11/13 10:15:16;;;;;;;;;36.33;32.33;;;;;11.20;100.00;101638.47;5058866;28;45247;-76
2022/11/13 10:17:52;;;;;;;;;33.67;30.67;;;;;11.24;100.00;101637.19;5059349;28;45350;-79
2022/11/13 10:20:23;;;;;;;;;33.33;32.00;;;;;11.31;100.00;101644.56;5059299;28;45448;-77
2022/11/13 10:23:04;;;;;;;;;48.50;38.50;;;;;11.32;100.00;101632.91;5059274;28;46389;-77
2022/11/13 10:25:35;;;;;;;;;46.25;37.00;;;;;11.44;100.00;101642.28;5057662;28;45478;-78
2022/11/13 10:28:07;;;;;;;;;36.00;32.67;;;;;11.45;100.00;101635.13;5060008;28;45355;-78
2022/11/13 10:30:32;;;;;;;;;34.00;32.00;;;;;11.52;100.00;101624.69;5060137;28;45359;-78
2022/11/13 10:33:04;;;;;;;;;34.00;32.00;;;;;11.60;100.00;101622.91;5060691;28;47551;-76
2022/11/13 10:36:07;;;;;;;;;37.67;33.00;;;;;11.66;100.00;101623.25;5057411;28;46070;-76
2022/11/13 10:38:57;;;;;;;;;31.33;28.00;;;;;11.72;100.00;101615.47;5059796;28;45330;-78
2022/11/13 10:41:22;;;;;;;;;33.67;30.67;;;;;11.71;100.00;101603.13;5047554;28;45574;-76
2022/11/13 10:43:58;;;;;;;;;38.00;33.67;;;;;11.73;100.00;101592.31;5057934;28;48654;-77
2022/11/13 10:46:26;;;;;;;;;30.00;29.67;;;;;11.89;100.00;101602.22;5054938;28;45233;-77
2022/11/13 10:48:51;;;;;;;;;54.25;45.50;;;;;11.89;100.00;101585.38;5059326;28;45362;-78
2022/11/13 10:51:20;;;;;;;;;52.50;43.50;;;;;12.00;100.00;101598.41;5058143;28;45494;-77
2022/11/13 10:53:46;;;;;;;;;46.00;38.50;;;;;12.02;100.00;101590.25;5057494;28;47219;-79
2022/11/13 10:56:32;;;;;;;;;37.00;33.33;;;;;12.09;100.00;101593.97;5059023;28;45477;-75
2022/11/13 10:59:18;;;;;;;;;41.00;34.00;;;;;12.14;100.00;101594.31;5056798;28;45257;-79
2022/11/13 11:01:45;;;;;;;;;38.33;33.00;;;;;12.13;100.00;101584.66;5058475;28;47646;-78
2022/11/13 11:04:28;;;;;;;;;42.67;36.00;;;;;12.19;100.00;101576.00;5058954;28;45386;-78
2022/11/13 11:06:54;;;;;;;;;36.00;33.00;;;;;12.20;100.00;101571.50;5058590;28;45358;-76
2022/11/13 11:09:29;;;;;;;;;34.67;31.33;;;;;12.28;100.00;101576.84;5058391;28;45513;-76
2022/11/13 11:12:15;;;;;;;;;26.33;25.67;;;;;12.29;100.00;101569.66;5056422;28;46210;-76